createdAt,value
2023-03-17T00:00:06.802Z,76.06
2023-03-17T00:02:52.036Z,75.95
2023-03-17T00:05:37.453Z,75.77
2023-03-17T00:08:27.725Z,75.66
2023-03-17T00:11:16.048Z,75.57
2023-03-17T00:14:01.290Z,75.65
2023-03-17T00:16:52.295Z,75.26
2023-03-17T00:19:37.586Z,75.71
2023-03-17T00:22:22.931Z,75.77
2023-03-17T00:25:23.663Z,75.76
2023-03-17T00:28:16.059Z,75.64
2023-03-17T00:31:01.678Z,76.10
2023-03-17T00:33:48.338Z,75.80
2023-03-17T00:36:34.379Z,75.65
2023-03-17T00:39:19.734Z,75.39
2023-03-17T00:42:06.525Z,75.56
2023-03-17T00:44:51.303Z,75.73
2023-03-17T00:47:37.325Z,75.80
2023-03-17T00:50:25.563Z,76.09
2023-03-17T00:53:18.861Z,76.23
2023-03-17T00:56:05.910Z,76.20
2023-03-17T00:58:51.410Z,75.90
2023-03-17T01:01:36.933Z,75.85
2023-03-17T01:04:22.858Z,75.66
2023-03-17T01:07:10.780Z,75.77
2023-03-17T01:09:56.113Z,75.54
2023-03-17T01:12:41.237Z,75.04
2023-03-17T01:15:30.286Z,74.75
2023-03-17T01:18:17.676Z,74.74
2023-03-17T01:21:03.621Z,75.06
2023-03-17T01:23:48.912Z,75.17
2023-03-17T01:26:34.271Z,75.23
2023-03-17T01:29:19.577Z,75.50
2023-03-17T01:32:04.933Z,75.51
2023-03-17T01:34:49.614Z,75.03
2023-03-17T01:37:34.549Z,75.49
2023-03-17T01:40:33.813Z,75.99
2023-03-17T01:43:25.816Z,76.03
2023-03-17T01:46:17.014Z,76.27
2023-03-17T01:49:24.485Z,76.42
2023-03-17T01:52:13.516Z,76.60
2023-03-17T01:55:05.166Z,76.34
2023-03-17T01:57:53.422Z,76.29
2023-03-17T02:00:39.358Z,76.31
2023-03-17T02:03:25.866Z,76.50
2023-03-17T02:06:11.590Z,76.27
2023-03-17T02:08:57.890Z,76.17
2023-03-17T02:11:44.481Z,75.80
2023-03-17T02:14:29.856Z,75.57
2023-03-17T02:17:14.889Z,74.44
2023-03-17T02:20:29.650Z,74.39
2023-03-17T02:23:18.872Z,75.09
2023-03-17T02:26:04.139Z,75.47
2023-03-17T02:28:49.245Z,75.32
2023-03-17T02:31:34.147Z,75.21
2023-03-17T02:34:19.276Z,75.52
2023-03-17T02:37:05.636Z,76.29
2023-03-17T02:39:50.601Z,76.79
2023-03-17T02:42:35.667Z,77.15
2023-03-17T02:45:21.132Z,77.69
2023-03-17T02:48:06.070Z,78.08
2023-03-17T02:50:51.337Z,78.24
2023-03-17T02:53:36.262Z,77.40
2023-03-17T02:56:21.044Z,77.49
2023-03-17T02:59:06.024Z,76.89
2023-03-17T03:01:50.888Z,76.78
2023-03-17T03:04:36.118Z,77.06
2023-03-17T03:07:21.089Z,76.99
2023-03-17T03:10:06.531Z,77.43
2023-03-17T03:12:51.641Z,77.88
2023-03-17T03:15:37.105Z,77.44
2023-03-17T03:18:22.416Z,77.27
2023-03-17T03:21:07.810Z,77.31
2023-03-17T03:23:53.240Z,77.56
2023-03-17T03:26:38.447Z,76.97
2023-03-17T03:29:23.326Z,77.19
2023-03-17T03:32:08.654Z,77.08
2023-03-17T03:34:53.968Z,76.48
2023-03-17T03:37:38.884Z,76.36
2023-03-17T03:40:25.180Z,76.90
2023-03-17T03:43:22.526Z,76.84
2023-03-17T03:46:09.012Z,76.22
2023-03-17T03:48:54.979Z,76.42
2023-03-17T03:51:40.010Z,76.54
2023-03-17T03:54:25.310Z,76.32
2023-03-17T03:57:10.793Z,76.10
2023-03-17T03:59:55.885Z,76.41
2023-03-17T04:02:41.955Z,76.63
2023-03-17T04:05:27.094Z,76.80
2023-03-17T04:08:12.583Z,76.87
2023-03-17T04:10:58.371Z,77.15
2023-03-17T04:13:43.656Z,77.02
2023-03-17T04:16:29.186Z,76.81
2023-03-17T04:19:14.783Z,76.67
2023-03-17T04:22:00.040Z,76.27
2023-03-17T04:24:45.538Z,76.08
2023-03-17T04:27:30.545Z,76.66
2023-03-17T04:30:15.546Z,76.38
2023-03-17T04:33:00.678Z,76.58
2023-03-17T04:35:46.056Z,76.29
2023-03-17T04:38:31.354Z,76.61
2023-03-17T04:41:16.230Z,76.41
2023-03-17T04:44:01.511Z,76.53
2023-03-17T04:46:46.622Z,76.20
2023-03-17T04:49:31.547Z,76.19
2023-03-17T04:52:17.080Z,76.12
2023-03-17T04:55:02.393Z,76.29
2023-03-17T04:57:47.612Z,76.37
2023-03-17T05:00:32.924Z,76.88
2023-03-17T05:03:26.743Z,76.89
2023-03-17T05:06:13.155Z,76.77
2023-03-17T05:08:58.611Z,76.92
2023-03-17T05:11:43.826Z,76.83
2023-03-17T05:14:28.845Z,77.31
2023-03-17T05:17:14.815Z,77.13
2023-03-17T05:20:00.004Z,77.30
2023-03-17T05:22:44.998Z,77.08
2023-03-17T05:25:30.307Z,77.18
2023-03-17T05:28:15.216Z,77.41
2023-03-17T05:31:00.738Z,77.26
2023-03-17T05:33:46.037Z,77.44
2023-03-17T05:36:32.029Z,76.91
2023-03-17T05:39:17.122Z,76.70
2023-03-17T05:42:02.727Z,77.35
2023-03-17T05:44:47.751Z,77.70
2023-03-17T05:47:33.501Z,77.98
2023-03-17T05:50:18.745Z,78.04
2023-03-17T05:53:03.880Z,78.18
2023-03-17T05:55:49.426Z,78.43
2023-03-17T05:58:34.253Z,77.94
2023-03-17T06:01:19.232Z,77.92
2023-03-17T06:04:04.577Z,77.58
2023-03-17T06:06:49.971Z,77.40
2023-03-17T06:09:35.846Z,76.41
2023-03-17T06:12:21.160Z,76.04
2023-03-17T06:15:07.043Z,75.00
2023-03-17T06:17:52.222Z,73.68
2023-03-17T06:20:37.389Z,74.31
2023-03-17T06:23:22.376Z,73.70
2023-03-17T06:26:07.916Z,72.75
2023-03-17T06:28:52.980Z,73.07
2023-03-17T06:31:39.565Z,72.82
2023-03-17T06:34:24.960Z,73.07
2023-03-17T06:37:10.365Z,73.01
2023-03-17T06:39:55.439Z,72.99
2023-03-17T06:42:40.442Z,73.03
2023-03-17T06:45:26.137Z,72.71
2023-03-17T06:48:12.127Z,72.04
2023-03-17T06:50:57.281Z,71.68
2023-03-17T06:53:42.857Z,71.77
2023-03-17T06:56:30.482Z,71.86
2023-03-17T06:59:15.768Z,72.18
2023-03-17T07:02:00.985Z,71.72
2023-03-17T07:04:46.337Z,71.77
2023-03-17T07:07:31.311Z,71.78
2023-03-17T07:10:16.966Z,71.28
2023-03-17T07:13:02.281Z,70.94
2023-03-17T07:15:48.921Z,70.25
2023-03-17T07:18:33.936Z,69.56
2023-03-17T07:21:19.278Z,68.81
2023-03-17T07:24:04.712Z,68.24
2023-03-17T07:26:49.988Z,67.83
2023-03-17T07:29:35.041Z,66.87
2023-03-17T07:32:20.114Z,66.96
2023-03-17T07:35:06.087Z,66.59
2023-03-17T07:37:51.486Z,67.05
2023-03-17T07:40:36.525Z,67.22
2023-03-17T07:43:21.487Z,66.68
2023-03-17T07:46:06.959Z,65.49
2023-03-17T07:48:52.665Z,64.75
2023-03-17T07:51:38.031Z,64.15
2023-03-17T07:54:23.207Z,63.19
2023-03-17T07:57:08.618Z,62.50
2023-03-17T07:59:54.325Z,61.31
2023-03-17T08:02:40.024Z,61.24
2023-03-17T08:05:25.497Z,61.49
2023-03-17T08:08:10.515Z,61.16
2023-03-17T08:11:03.677Z,60.53
2023-03-17T08:13:49.428Z,59.79
2023-03-17T08:16:34.501Z,58.89
2023-03-17T08:19:19.517Z,59.07
2023-03-17T08:22:04.689Z,58.24
2023-03-17T08:24:49.888Z,58.14
2023-03-17T08:27:35.008Z,59.22
2023-03-17T08:30:20.578Z,59.87
2023-03-17T08:33:05.908Z,59.79
2023-03-17T08:35:51.270Z,59.90
2023-03-17T08:38:41.481Z,59.12
2023-03-17T08:41:27.876Z,59.13
2023-03-17T08:44:13.996Z,58.86
2023-03-17T08:46:59.210Z,57.93
2023-03-17T08:49:44.995Z,57.40
2023-03-17T08:52:32.205Z,58.61
2023-03-17T08:55:18.368Z,59.58
2023-03-17T08:58:03.648Z,58.84
2023-03-17T09:00:48.840Z,58.07
2023-03-17T09:03:34.205Z,58.36
2023-03-17T09:06:19.389Z,56.44
2023-03-17T09:09:04.736Z,57.63
2023-03-17T09:11:49.683Z,58.75
2023-03-17T09:14:43.332Z,58.17
2023-03-17T09:17:29.222Z,57.80
2023-03-17T09:20:14.597Z,58.08
2023-03-17T09:22:59.778Z,58.16
2023-03-17T09:25:45.140Z,57.85
2023-03-17T09:28:30.504Z,57.75
2023-03-17T09:31:15.793Z,57.76
2023-03-17T09:34:01.311Z,57.66
2023-03-17T09:36:46.595Z,58.32
2023-03-17T09:39:32.066Z,57.72
2023-03-17T09:42:42.432Z,57.66
2023-03-17T09:45:38.218Z,58.08
2023-03-17T09:48:31.925Z,57.92
2023-03-17T09:51:18.819Z,57.04
2023-03-17T09:54:27.082Z,56.46
2023-03-17T09:57:37.480Z,56.46
2023-03-17T10:03:25.959Z,56.08
2023-03-17T10:06:21.515Z,55.81
2023-03-17T10:09:27.069Z,55.97
2023-03-17T10:12:27.099Z,56.15
2023-03-17T10:15:25.203Z,56.42
2023-03-17T10:18:13.927Z,55.44
2023-03-17T10:21:06.517Z,55.48
2023-03-17T10:23:53.868Z,55.27
2023-03-17T10:26:48.694Z,54.66
2023-03-17T10:29:34.266Z,54.57
2023-03-17T10:32:19.271Z,55.15
2023-03-17T10:35:04.931Z,54.45
2023-03-17T10:37:51.123Z,54.16
2023-03-17T10:40:37.323Z,52.74
2023-03-17T10:43:28.987Z,53.24
2023-03-17T10:46:25.971Z,53.34
2023-03-17T10:49:17.252Z,54.24
2023-03-17T10:52:07.439Z,54.19
2023-03-17T10:54:54.541Z,53.96
2023-03-17T10:57:49.402Z,54.50
2023-03-17T11:00:37.304Z,55.00
2023-03-17T11:03:25.299Z,54.04
2023-03-17T11:06:19.625Z,54.13
2023-03-17T11:09:08.824Z,52.99
2023-03-17T11:12:28.062Z,52.39
2023-03-17T11:15:15.385Z,53.20
2023-03-17T11:18:21.831Z,50.95
2023-03-17T11:21:16.600Z,52.16
2023-03-17T11:24:13.992Z,51.84
2023-03-17T11:27:31.174Z,51.67
2023-03-17T11:30:42.584Z,51.40
2023-03-17T11:33:35.954Z,51.73
2023-03-17T11:36:37.979Z,51.63
2023-03-17T11:39:27.914Z,51.64
2023-03-17T11:42:43.038Z,50.97
2023-03-17T11:45:31.354Z,51.20
2023-03-17T11:48:19.852Z,51.38
2023-03-17T11:51:14.299Z,52.57
2023-03-17T11:54:31.067Z,50.90
2023-03-17T11:57:42.521Z,50.99
2023-03-17T12:00:35.811Z,50.71
2023-03-17T12:03:41.260Z,50.09
2023-03-17T12:06:33.898Z,50.32
2023-03-17T12:09:30.320Z,49.49
2023-03-17T12:12:26.381Z,48.88
2023-03-17T12:15:40.156Z,48.34
2023-03-17T12:18:29.413Z,48.09
2023-03-17T12:21:38.511Z,47.95
2023-03-17T12:24:32.782Z,47.78
2023-03-17T12:27:25.113Z,48.92
2023-03-17T12:30:31.736Z,47.49
2023-03-17T12:33:23.213Z,47.34
2023-03-17T12:36:13.167Z,46.50
2023-03-17T12:39:01.305Z,47.08
2023-03-17T12:42:07.646Z,47.47
2023-03-17T12:45:22.533Z,46.93
2023-03-17T12:48:19.643Z,47.40
2023-03-17T12:51:22.853Z,47.29
2023-03-17T12:54:26.371Z,46.97
2023-03-17T12:57:19.244Z,47.14
2023-03-17T13:00:26.518Z,47.51
2023-03-17T13:03:29.210Z,46.94
2023-03-17T13:06:19.746Z,48.40
2023-03-17T13:09:46.171Z,48.37
2023-03-17T13:12:40.280Z,48.08
2023-03-17T13:15:25.272Z,48.68
2023-03-17T13:18:16.755Z,48.05
2023-03-17T13:21:01.999Z,47.69
2023-03-17T13:24:16.446Z,47.44
2023-03-17T13:27:03.512Z,48.21
2023-03-17T13:29:48.564Z,47.95
2023-03-17T13:32:35.622Z,47.40
2023-03-17T13:35:25.239Z,48.78
2023-03-17T13:38:13.339Z,48.99
2023-03-17T13:41:22.307Z,49.77
2023-03-17T13:44:12.598Z,49.17
2023-03-17T13:47:16.384Z,50.06
2023-03-17T13:50:08.001Z,49.96
2023-03-17T13:53:02.014Z,49.90
2023-03-17T13:56:22.768Z,49.40
2023-03-17T13:59:16.599Z,50.32
2023-03-17T14:02:16.112Z,51.35
2023-03-17T14:05:05.053Z,51.25
2023-03-17T14:08:00.541Z,49.88
2023-03-17T14:10:53.961Z,49.88
2023-03-17T14:13:54.022Z,50.77
2023-03-17T14:16:45.004Z,50.55
2023-03-17T14:19:30.844Z,50.33
2023-03-17T14:22:26.105Z,50.62
2023-03-17T14:25:21.696Z,51.13
2023-03-17T14:28:12.393Z,51.16
2023-03-17T14:31:03.374Z,51.68
2023-03-17T14:33:52.335Z,51.26
2023-03-17T14:36:37.667Z,52.38
2023-03-17T14:39:25.405Z,52.40
2023-03-17T14:42:11.101Z,51.94
2023-03-17T14:45:06.048Z,52.38
2023-03-17T14:47:51.495Z,52.85
2023-03-17T14:50:36.459Z,53.49
2023-03-17T14:53:23.860Z,53.89
2023-03-17T14:56:09.872Z,54.64
2023-03-17T14:58:55.078Z,54.77
2023-03-17T15:01:45.922Z,55.29
2023-03-17T15:04:33.739Z,54.73
2023-03-17T15:07:45.323Z,55.10
2023-03-17T15:10:41.985Z,55.18
2023-03-17T15:13:28.712Z,55.50
2023-03-17T15:16:29.064Z,55.98
2023-03-17T15:19:28.903Z,55.88
2023-03-17T15:22:38.035Z,56.22
2023-03-17T15:25:32.345Z,57.30
2023-03-17T15:28:20.109Z,57.55
2023-03-17T15:31:13.392Z,57.59
2023-03-17T15:34:00.994Z,57.83
2023-03-17T15:36:46.385Z,58.17
2023-03-17T15:39:33.419Z,58.26
2023-03-17T15:42:20.568Z,58.11
2023-03-17T15:45:06.501Z,58.48
2023-03-17T15:47:53.796Z,58.94
2023-03-17T15:50:39.040Z,58.03
2023-03-17T15:53:24.441Z,58.56
2023-03-17T15:56:19.585Z,58.19
2023-03-17T15:59:08.783Z,58.79
2023-03-17T16:01:54.480Z,58.74
2023-03-17T16:04:41.544Z,59.13
2023-03-17T16:07:27.059Z,59.29
2023-03-17T16:10:24.300Z,59.37
2023-03-17T16:13:10.480Z,59.57
2023-03-17T16:15:59.147Z,59.93
2023-03-17T16:18:44.606Z,60.32
2023-03-17T16:21:30.533Z,60.79
2023-03-17T16:24:21.192Z,60.30
2023-03-17T16:27:14.556Z,59.96
2023-03-17T16:29:59.806Z,60.87
2023-03-17T16:32:45.411Z,61.02
2023-03-17T16:35:30.796Z,61.76
2023-03-17T16:38:18.805Z,61.97
2023-03-17T16:41:15.294Z,62.34
2023-03-17T16:44:02.452Z,62.14
2023-03-17T16:46:48.991Z,62.70
2023-03-17T16:49:35.835Z,62.40
2023-03-17T16:52:25.126Z,63.15
2023-03-17T16:55:10.945Z,63.09
2023-03-17T16:57:59.841Z,63.30
2023-03-17T17:00:45.885Z,64.38
2023-03-17T17:03:31.287Z,64.50
2023-03-17T17:06:18.294Z,64.66
2023-03-17T17:09:04.002Z,64.60
2023-03-17T17:11:49.318Z,63.92
2023-03-17T17:14:34.838Z,63.70
2023-03-17T17:17:20.260Z,63.42
2023-03-17T17:20:36.374Z,63.54
2023-03-17T17:23:25.451Z,63.52
2023-03-17T17:26:10.803Z,63.57
2023-03-17T17:28:55.787Z,64.02
2023-03-17T17:31:40.705Z,64.66
2023-03-17T17:34:26.316Z,64.80
2023-03-17T17:37:11.903Z,64.75
2023-03-17T17:39:57.657Z,64.61
2023-03-17T17:42:43.773Z,64.83
2023-03-17T17:45:28.767Z,65.26
2023-03-17T17:48:19.724Z,65.01
2023-03-17T17:51:04.822Z,65.09
2023-03-17T17:53:49.997Z,65.15
2023-03-17T17:56:34.956Z,65.81
2023-03-17T17:59:20.402Z,66.58
2023-03-17T18:02:05.957Z,66.18
2023-03-17T18:04:51.228Z,65.69
2023-03-17T18:07:36.831Z,65.32
2023-03-17T18:10:23.768Z,65.15
2023-03-17T18:13:09.579Z,65.37
2023-03-17T18:15:55.138Z,65.52
2023-03-17T18:18:40.438Z,65.24
2023-03-17T18:21:25.324Z,64.85
2023-03-17T18:24:10.650Z,65.28
2023-03-17T18:26:56.112Z,65.47
2023-03-17T18:29:41.638Z,66.20
2023-03-17T18:32:28.378Z,66.82
2023-03-17T18:35:17.756Z,67.43
2023-03-17T18:38:03.308Z,68.26
2023-03-17T18:40:48.476Z,67.96
2023-03-17T18:43:34.088Z,68.47
2023-03-17T18:46:19.284Z,68.44
2023-03-17T18:49:06.362Z,68.41
2023-03-17T18:51:51.860Z,67.95
2023-03-17T18:54:37.659Z,67.90
2023-03-17T18:57:23.177Z,68.13
2023-03-17T19:00:09.808Z,68.68
2023-03-17T19:02:55.094Z,69.26
2023-03-17T19:05:40.512Z,69.28
2023-03-17T19:08:25.869Z,69.14
2023-03-17T19:11:13.546Z,69.61
2023-03-17T19:13:58.786Z,70.06
2023-03-17T19:16:44.158Z,69.77
2023-03-17T19:19:29.719Z,69.80
2023-03-17T19:22:15.194Z,70.07
2023-03-17T19:25:00.663Z,69.89
2023-03-17T19:27:46.158Z,69.96
2023-03-17T19:30:31.803Z,70.24
2023-03-17T19:33:17.118Z,70.07
2023-03-17T19:36:07.842Z,70.08
2023-03-17T19:38:53.250Z,70.84
2023-03-17T19:41:39.038Z,70.86
2023-03-17T19:44:24.826Z,70.96
2023-03-17T19:47:09.966Z,72.04
2023-03-17T19:49:55.539Z,72.87
2023-03-17T19:52:40.861Z,72.93
2023-03-17T19:55:26.458Z,74.27
2023-03-17T19:58:11.894Z,76.16
2023-03-17T20:00:57.327Z,78.43
2023-03-17T20:03:42.911Z,80.13
2023-03-17T20:06:28.127Z,80.97
2023-03-17T20:09:13.940Z,82.13
2023-03-17T20:11:58.843Z,81.14
2023-03-17T20:14:46.566Z,80.71
2023-03-17T20:17:31.657Z,81.17
2023-03-17T20:20:17.018Z,82.60
2023-03-17T20:23:02.655Z,83.44
2023-03-17T20:25:48.979Z,83.73
2023-03-17T20:28:34.185Z,84.15
2023-03-17T20:31:19.456Z,84.42
2023-03-17T20:34:04.815Z,84.51
2023-03-17T20:36:50.414Z,85.03
2023-03-17T20:39:36.533Z,85.45
2023-03-17T20:42:21.671Z,84.97
2023-03-17T20:45:07.394Z,84.52
2023-03-17T20:47:52.612Z,83.30
2023-03-17T20:50:38.712Z,83.17
2023-03-17T20:53:24.375Z,83.51
2023-03-17T20:56:13.790Z,84.30
2023-03-17T20:58:59.155Z,84.53
2023-03-17T21:01:44.385Z,84.10
2023-03-17T21:04:29.662Z,83.85
2023-03-17T21:07:17.545Z,83.36
2023-03-17T21:10:02.600Z,82.94
2023-03-17T21:12:48.291Z,82.48
2023-03-17T21:15:33.700Z,81.67
2023-03-17T21:18:19.139Z,81.16
2023-03-17T21:21:04.458Z,80.47
2023-03-17T21:23:49.530Z,79.03
2023-03-17T21:26:35.228Z,77.94
2023-03-17T21:29:20.555Z,75.64
2023-03-17T21:32:06.906Z,74.03
2023-03-17T21:34:52.185Z,72.91
2023-03-17T21:37:37.426Z,72.11
2023-03-17T21:40:24.064Z,71.43
2023-03-17T21:43:09.599Z,70.18
2023-03-17T21:45:55.079Z,69.92
2023-03-17T21:48:40.559Z,69.63
2023-03-17T21:51:26.128Z,68.77
2023-03-17T21:54:11.387Z,69.40
2023-03-17T21:56:56.502Z,69.80
2023-03-17T21:59:41.592Z,69.78
2023-03-17T22:02:27.069Z,69.93
2023-03-17T22:05:12.044Z,69.44
2023-03-17T22:07:57.414Z,68.52
2023-03-17T22:10:42.787Z,68.37
2023-03-17T22:13:28.085Z,68.55
2023-03-17T22:16:14.903Z,68.29
2023-03-17T22:19:00.253Z,68.34
2023-03-17T22:21:45.742Z,68.95
2023-03-17T22:24:31.245Z,69.29
2023-03-17T22:27:17.877Z,69.33
2023-03-17T22:30:04.083Z,70.15
2023-03-17T22:32:49.356Z,70.27
2023-03-17T22:35:35.457Z,70.86
2023-03-17T22:38:21.541Z,71.14
2023-03-17T22:41:11.333Z,71.04
2023-03-17T22:43:57.165Z,70.90
2023-03-17T22:46:42.586Z,70.88
2023-03-17T22:49:27.831Z,71.08
2023-03-17T22:52:13.395Z,71.07
2023-03-17T22:54:58.781Z,70.92
2023-03-17T22:57:44.229Z,71.22
2023-03-17T23:00:30.543Z,71.06
2023-03-17T23:03:16.297Z,71.03
2023-03-17T23:06:03.723Z,70.98
2023-03-17T23:08:49.414Z,71.99
2023-03-17T23:11:34.906Z,71.70
2023-03-17T23:14:20.168Z,72.04
2023-03-17T23:17:06.008Z,72.93
2023-03-17T23:19:51.394Z,74.43
2023-03-17T23:22:38.392Z,76.13
2023-03-17T23:25:23.639Z,76.78
2023-03-17T23:28:09.647Z,77.83
2023-03-17T23:30:54.719Z,78.13
2023-03-17T23:33:40.164Z,79.60
2023-03-17T23:36:25.163Z,80.59
2023-03-17T23:39:10.525Z,81.34
2023-03-17T23:41:55.696Z,82.92
2023-03-17T23:44:40.590Z,83.97
2023-03-17T23:47:26.045Z,84.11
2023-03-17T23:50:13.301Z,84.63
2023-03-17T23:52:58.724Z,85.82
2023-03-17T23:55:44.028Z,87.67
2023-03-17T23:58:29.299Z,89.98
